createdAt,value
2022-11-30T08:48:22.559Z,11.02
2022-11-30T09:04:17.698Z,12.35
2022-11-30T09:06:47.021Z,13.02
2022-11-30T09:09:16.077Z,13.43
2022-11-30T09:11:44.921Z,13.25
2022-11-30T09:14:13.490Z,13.02
2022-11-30T09:16:42.679Z,12.50
2022-11-30T09:19:11.680Z,13.25
2022-11-30T09:21:44.248Z,12.00
2022-11-30T09:24:21.749Z,12.70
2022-11-30T09:26:51.018Z,11.95
2022-11-30T09:29:17.989Z,10.60
2022-11-30T09:31:44.889Z,10.07
2022-11-30T09:34:12.106Z,10.52
2022-11-30T09:36:39.063Z,10.00
2022-11-30T09:39:06.617Z,7.15
2022-11-30T09:41:38.849Z,6.20
2022-11-30T09:44:05.763Z,6.40
2022-11-30T09:47:00.812Z,6.57
2022-11-30T09:49:32.151Z,6.13
2022-11-30T09:52:00.586Z,8.30
2022-11-30T09:54:37.574Z,9.85
2022-11-30T09:57:31.717Z,11.05
2022-11-30T10:00:00.131Z,11.57
2022-11-30T10:02:36.155Z,11.20
2022-11-30T10:05:03.277Z,10.57
2022-11-30T10:07:37.328Z,9.38
2022-11-30T10:10:34.136Z,8.95
2022-11-30T10:13:30.816Z,9.55
2022-11-30T10:16:30.163Z,10.57
2022-11-30T10:19:48.278Z,9.70
2022-11-30T10:22:34.778Z,10.23
2022-11-30T10:25:19.468Z,11.20
2022-11-30T10:27:53.905Z,10.55
2022-11-30T10:30:25.209Z,10.73
2022-11-30T10:32:56.596Z,12.05
2022-11-30T10:35:33.660Z,10.93
2022-11-30T10:38:03.707Z,13.20
2022-11-30T10:40:38.203Z,22.25
2022-11-30T10:43:11.910Z,24.98
2022-11-30T10:45:42.041Z,16.50
2022-11-30T10:48:34.391Z,15.80
2022-11-30T10:51:01.385Z,14.88
2022-11-30T10:53:28.520Z,15.82
2022-11-30T10:56:06.091Z,22.02
2022-11-30T10:58:51.994Z,11.73
2022-11-30T11:01:45.580Z,11.65
2022-11-30T11:04:14.614Z,11.18
2022-11-30T11:06:43.365Z,11.35
2022-11-30T11:09:31.668Z,15.63
2022-11-30T11:12:02.679Z,19.48
2022-11-30T11:14:33.662Z,17.73
2022-11-30T11:17:06.522Z,16.48
2022-11-30T11:19:40.290Z,16.58
2022-11-30T11:22:21.069Z,17.23
2022-11-30T11:24:48.897Z,16.75
2022-11-30T11:27:34.101Z,16.80
2022-11-30T11:30:27.759Z,14.73
2022-11-30T11:33:02.723Z,14.20
2022-11-30T11:35:37.614Z,15.00
2022-11-30T11:38:17.918Z,16.23
2022-11-30T11:41:00.243Z,14.25
2022-11-30T11:43:31.814Z,12.73
2022-11-30T11:46:18.973Z,11.23
2022-11-30T11:48:49.018Z,13.60
2022-11-30T11:51:15.889Z,13.48
2022-11-30T11:53:53.882Z,13.27
2022-11-30T11:56:26.325Z,13.60
2022-11-30T11:59:32.263Z,12.48
2022-11-30T12:02:04.852Z,12.88
2022-11-30T12:04:57.732Z,14.35
2022-11-30T12:07:35.049Z,12.25
2022-11-30T12:10:51.336Z,12.40
2022-11-30T12:13:18.590Z,12.45
2022-11-30T12:15:57.562Z,12.83
2022-11-30T12:18:28.809Z,12.45
2022-11-30T12:21:22.623Z,13.30
2022-11-30T12:23:53.573Z,12.77
2022-11-30T12:26:39.693Z,11.98
2022-11-30T12:29:34.556Z,13.10
2022-11-30T12:32:17.484Z,12.32
2022-11-30T12:35:05.932Z,11.60
2022-11-30T12:38:07.025Z,10.60
2022-11-30T12:41:01.018Z,12.05
2022-11-30T12:46:33.780Z,10.40
2022-11-30T12:49:26.376Z,11.25
2022-11-30T12:52:02.361Z,12.40
2022-11-30T12:54:32.351Z,12.40
2022-11-30T12:57:08.551Z,12.00
2022-11-30T12:59:53.482Z,11.95
2022-11-30T13:02:32.415Z,12.52
2022-11-30T13:05:04.468Z,12.18
2022-11-30T13:07:39.949Z,10.95
2022-11-30T13:10:18.049Z,11.93
2022-11-30T13:12:47.771Z,12.15
2022-11-30T13:15:38.039Z,12.50
2022-11-30T13:18:05.972Z,12.20
2022-11-30T13:20:40.331Z,12.52
2022-11-30T13:23:18.530Z,12.00
2022-11-30T13:26:23.418Z,12.02
2022-11-30T13:29:20.174Z,12.00
2022-11-30T13:31:51.412Z,11.57
2022-11-30T13:34:24.511Z,11.98
2022-11-30T13:36:51.580Z,12.25
2022-11-30T13:39:25.480Z,10.63
2022-11-30T13:42:01.464Z,12.55
2022-11-30T13:44:37.556Z,12.35
2022-11-30T13:47:36.476Z,12.35
2022-11-30T13:53:02.922Z,12.13
2022-11-30T13:55:41.805Z,12.90
2022-11-30T13:58:09.941Z,12.23
2022-11-30T14:00:36.828Z,15.48
2022-11-30T14:03:25.438Z,13.30
2022-11-30T14:05:56.172Z,11.38
2022-11-30T14:08:23.004Z,13.32
2022-11-30T14:10:53.933Z,12.73
2022-11-30T14:13:22.628Z,12.45
2022-11-30T14:16:02.528Z,13.18
2022-11-30T14:18:40.861Z,13.18
2022-11-30T14:21:24.075Z,13.30
2022-11-30T14:23:57.023Z,12.63
2022-11-30T14:26:36.477Z,11.80
2022-11-30T14:29:07.398Z,11.85
2022-11-30T14:31:39.838Z,12.82
2022-11-30T14:34:20.036Z,13.87
2022-11-30T14:36:50.991Z,10.68
2022-11-30T14:39:27.917Z,11.93
2022-11-30T14:41:55.011Z,11.20
2022-11-30T14:44:21.804Z,10.90
2022-11-30T14:46:48.685Z,10.25
2022-11-30T14:49:23.413Z,10.88
2022-11-30T14:51:57.684Z,10.32
2022-11-30T14:55:13.505Z,9.93
2022-11-30T14:58:29.849Z,10.02
2022-11-30T15:00:57.446Z,9.43
2022-11-30T15:03:29.200Z,9.73
2022-11-30T15:05:57.669Z,8.70
2022-11-30T15:08:25.726Z,8.55
2022-11-30T15:10:52.561Z,9.93
2022-11-30T15:13:19.429Z,8.93
2022-11-30T15:15:50.844Z,8.70
2022-11-30T15:18:18.773Z,9.40
2022-11-30T15:21:00.263Z,9.18
2022-11-30T15:23:27.119Z,8.63
2022-11-30T15:25:59.791Z,8.90
2022-11-30T15:28:32.731Z,8.10
2022-11-30T15:31:01.196Z,7.45
2022-11-30T15:33:33.968Z,7.65
2022-11-30T15:38:50.429Z,7.53
2022-11-30T15:41:24.908Z,7.13
2022-11-30T15:43:55.321Z,7.18
2022-11-30T15:46:46.066Z,7.18
2022-11-30T15:49:18.854Z,6.88
2022-11-30T15:51:47.125Z,7.93
2022-11-30T15:54:13.989Z,6.93
2022-11-30T15:56:40.798Z,6.53
2022-11-30T15:59:19.512Z,6.10
2022-11-30T16:02:02.664Z,6.10
2022-11-30T16:04:48.893Z,5.40
2022-11-30T16:07:18.785Z,6.68
2022-11-30T16:09:45.856Z,5.85
2022-11-30T16:12:27.336Z,6.07
2022-11-30T16:14:54.100Z,6.90
2022-11-30T16:17:21.015Z,5.68
2022-11-30T16:19:48.161Z,5.93
2022-11-30T16:22:15.722Z,6.30
2022-11-30T16:24:42.611Z,6.57
2022-11-30T16:27:17.954Z,4.65
2022-11-30T16:29:50.478Z,4.72
2022-11-30T16:32:19.270Z,4.72
2022-11-30T16:34:47.049Z,5.97
2022-11-30T16:37:14.752Z,7.13
2022-11-30T16:39:41.559Z,7.22
2022-11-30T16:42:11.948Z,5.55
2022-11-30T16:44:38.788Z,5.25
2022-11-30T16:47:05.573Z,5.78
2022-11-30T16:49:32.385Z,6.72
2022-11-30T16:51:59.192Z,6.97
2022-11-30T16:54:25.967Z,7.53
2022-11-30T16:56:52.766Z,6.63
2022-11-30T16:59:19.567Z,6.55
2022-11-30T17:01:47.306Z,7.20
2022-11-30T17:04:20.521Z,6.78
2022-11-30T17:06:50.467Z,6.95
2022-11-30T17:09:17.880Z,7.38
2022-11-30T17:11:45.657Z,7.90
2022-11-30T17:14:13.129Z,9.25
2022-11-30T17:17:08.254Z,9.38
2022-11-30T17:19:35.151Z,9.13
2022-11-30T17:22:03.036Z,8.73
2022-11-30T17:24:29.841Z,8.02
2022-11-30T17:26:57.309Z,10.07
2022-11-30T17:29:24.109Z,10.18
2022-11-30T17:31:50.928Z,9.63
2022-11-30T17:34:17.745Z,12.07
2022-11-30T17:36:45.139Z,12.18
2022-11-30T17:39:12.030Z,12.32
2022-11-30T17:41:38.934Z,12.20
2022-11-30T17:44:05.804Z,13.25
2022-11-30T17:46:32.695Z,12.48
2022-11-30T17:48:59.730Z,13.98
2022-11-30T17:51:26.623Z,14.50
2022-11-30T17:53:53.579Z,22.90
2022-11-30T17:56:20.585Z,14.93
2022-11-30T17:58:49.297Z,14.20
2022-11-30T18:01:21.751Z,14.80
2022-11-30T18:08:13.051Z,14.23
2022-11-30T18:10:41.039Z,16.20
2022-11-30T18:13:07.985Z,16.52
2022-11-30T18:15:35.103Z,15.50
2022-11-30T18:18:02.711Z,16.17
2022-11-30T18:20:29.481Z,15.60
2022-11-30T18:22:56.264Z,16.23
2022-11-30T18:25:23.161Z,16.77
2022-11-30T18:27:52.959Z,17.63
2022-11-30T18:30:19.868Z,15.45
2022-11-30T18:32:46.688Z,15.15
2022-11-30T18:35:13.474Z,14.95
2022-11-30T18:37:40.247Z,19.98
2022-11-30T18:40:07.681Z,20.45
2022-11-30T18:42:34.478Z,17.20
2022-11-30T18:45:01.243Z,15.63
2022-11-30T18:47:28.051Z,14.80
2022-11-30T18:49:54.813Z,13.30
2022-11-30T18:52:21.634Z,13.55
2022-11-30T18:54:48.634Z,13.52
2022-11-30T18:57:15.533Z,17.60
2022-11-30T18:59:42.398Z,17.30
2022-11-30T19:02:09.409Z,21.35
2022-11-30T19:04:36.273Z,19.13
2022-11-30T19:07:03.217Z,19.58
2022-11-30T19:09:30.675Z,21.73
2022-11-30T19:11:58.109Z,19.50
2022-11-30T19:14:24.897Z,18.88
2022-11-30T19:16:51.734Z,20.38
2022-11-30T19:19:18.555Z,19.30
2022-11-30T19:21:47.592Z,20.35
2022-11-30T19:24:15.406Z,18.77
2022-11-30T19:26:42.191Z,22.35
2022-11-30T19:29:10.901Z,25.67
2022-11-30T19:31:40.585Z,24.05
2022-11-30T19:34:12.580Z,24.52
2022-11-30T19:36:40.036Z,23.03
2022-11-30T19:39:06.849Z,23.35
2022-11-30T19:41:33.768Z,26.27
2022-11-30T19:44:03.978Z,23.88
2022-11-30T19:46:32.940Z,22.85
2022-11-30T19:49:01.355Z,21.58
2022-11-30T19:51:28.694Z,19.98
2022-11-30T19:53:57.513Z,21.17
2022-11-30T19:56:24.662Z,21.70
2022-11-30T19:58:51.909Z,20.23
2022-11-30T20:01:22.980Z,20.50
2022-11-30T20:03:50.736Z,19.02
2022-11-30T20:06:18.010Z,19.35
2022-11-30T20:08:44.975Z,19.23
2022-11-30T20:11:12.965Z,19.95
2022-11-30T20:13:39.838Z,18.70
2022-11-30T20:16:16.245Z,20.35
2022-11-30T20:18:46.224Z,17.15
2022-11-30T20:21:18.252Z,18.88
2022-11-30T20:23:46.994Z,17.85
2022-11-30T20:26:17.580Z,26.98
2022-11-30T20:28:45.060Z,21.90
2022-11-30T20:31:12.884Z,18.65
2022-11-30T20:33:39.731Z,17.75
2022-11-30T20:36:07.930Z,17.17
2022-11-30T20:38:34.831Z,17.17
2022-11-30T20:41:01.931Z,17.75
2022-11-30T20:43:28.788Z,17.83
2022-11-30T20:45:55.744Z,16.60
2022-11-30T20:48:22.661Z,17.00
2022-11-30T20:51:14.043Z,39.67
2022-11-30T20:53:36.384Z,30.67
2022-11-30T20:56:03.326Z,23.45
2022-11-30T20:58:30.844Z,32.90
2022-11-30T21:00:58.716Z,21.23
2022-11-30T21:03:25.660Z,19.42
2022-11-30T21:05:52.481Z,18.52
2022-11-30T21:08:19.280Z,21.13
2022-11-30T21:10:46.114Z,19.63
2022-11-30T21:13:13.492Z,19.27
2022-11-30T21:15:40.705Z,17.70
2022-11-30T21:18:07.872Z,17.20
2022-11-30T21:20:34.736Z,18.25
2022-11-30T21:23:01.542Z,16.00
2022-11-30T21:25:28.303Z,16.90
2022-11-30T21:27:55.058Z,16.92
2022-11-30T21:30:21.793Z,16.42
2022-11-30T21:32:48.626Z,12.90
2022-11-30T21:35:15.414Z,13.40
2022-11-30T21:37:42.224Z,11.43
2022-11-30T21:40:09.541Z,11.90
2022-11-30T21:42:36.365Z,10.98
2022-11-30T21:45:05.605Z,11.38
2022-11-30T21:47:32.583Z,10.90
2022-11-30T21:49:59.704Z,10.85
2022-11-30T21:52:26.717Z,11.80
2022-11-30T21:54:53.896Z,11.18
2022-11-30T21:57:23.804Z,11.25
2022-11-30T21:59:50.781Z,11.20
2022-11-30T22:02:17.736Z,10.68
2022-11-30T22:04:44.613Z,10.73
2022-11-30T22:07:12.855Z,10.60
2022-11-30T22:09:39.708Z,10.05
2022-11-30T22:12:06.621Z,9.77
2022-11-30T22:14:36.127Z,9.10
2022-11-30T22:17:02.924Z,9.77
2022-11-30T22:19:29.750Z,10.02
2022-11-30T22:21:56.613Z,10.80
2022-11-30T22:24:23.403Z,10.65
2022-11-30T22:26:50.234Z,10.15
2022-11-30T22:29:19.098Z,10.93
2022-11-30T22:31:47.703Z,11.40
2022-11-30T22:34:14.834Z,10.63
2022-11-30T22:36:42.530Z,11.05
2022-11-30T22:39:12.282Z,11.40
2022-11-30T22:41:39.995Z,12.60
2022-11-30T22:44:06.798Z,23.50
2022-11-30T22:46:34.656Z,21.85
2022-11-30T22:49:02.337Z,21.20
2022-11-30T22:51:30.045Z,19.88
2022-11-30T22:53:57.403Z,18.48
2022-11-30T22:56:26.162Z,17.23
2022-11-30T22:58:54.311Z,16.00
2022-11-30T23:01:23.821Z,15.25
2022-11-30T23:03:51.372Z,15.15
2022-11-30T23:06:19.176Z,13.88
2022-11-30T23:08:46.297Z,15.95
2022-11-30T23:11:15.078Z,13.32
2022-11-30T23:13:42.117Z,12.90
2022-11-30T23:16:09.597Z,13.20
2022-11-30T23:19:00.932Z,13.18
2022-11-30T23:21:33.644Z,13.52
2022-11-30T23:24:05.061Z,12.48
2022-11-30T23:26:33.556Z,12.57
2022-11-30T23:29:05.599Z,11.13
2022-11-30T23:31:35.583Z,12.68
2022-11-30T23:34:07.386Z,12.80
2022-11-30T23:36:34.623Z,12.27
2022-11-30T23:39:04.249Z,12.10
2022-11-30T23:41:31.209Z,12.15
2022-11-30T23:43:58.093Z,12.90
2022-11-30T23:46:25.373Z,12.88
2022-11-30T23:48:52.423Z,12.70
2022-11-30T23:51:19.281Z,13.70
2022-11-30T23:53:46.131Z,13.38
2022-11-30T23:56:14.240Z,12.73
2022-11-30T23:58:41.108Z,12.32
